sensor_id;sensor_type;location;lat;lon;timestamp;temperature;humidity
22224;DHT22;11281;52.194;21.006;2023-02-26T00:04:00;0.80;99.90
22224;DHT22;11281;52.194;21.006;2023-02-26T00:08:23;0.70;99.90
22224;DHT22;11281;52.194;21.006;2023-02-26T00:12:45;0.70;99.90
22224;DHT22;11281;52.194;21.006;2023-02-26T00:17:25;0.70;99.90
22224;DHT22;11281;52.194;21.006;2023-02-26T00:21:53;0.70;99.90
22224;DHT22;11281;52.194;21.006;2023-02-26T00:26:15;0.60;99.90
22224;DHT22;11281;52.194;21.006;2023-02-26T00:30:37;0.60;99.90
22224;DHT22;11281;52.194;21.006;2023-02-26T00:34:59;0.60;99.90
22224;DHT22;11281;52.194;21.006;2023-02-26T00:39:39;0.60;99.90
22224;DHT22;11281;52.194;21.006;2023-02-26T00:44:05;0.50;99.90
22224;DHT22;11281;52.194;21.006;2023-02-26T00:53:26;0.50;99.90
22224;DHT22;11281;52.194;21.006;2023-02-26T00:57:50;0.50;99.90
22224;DHT22;11281;52.194;21.006;2023-02-26T01:02:12;0.50;99.90
22224;DHT22;11281;52.194;21.006;2023-02-26T01:06:39;0.40;99.90
22224;DHT22;11281;52.194;21.006;2023-02-26T01:11:06;0.40;99.90
22224;DHT22;11281;52.194;21.006;2023-02-26T01:15:29;0.30;99.90
22224;DHT22;11281;52.194;21.006;2023-02-26T01:20:01;0.40;99.90
22224;DHT22;11281;52.194;21.006;2023-02-26T01:24:29;0.30;99.90
22224;DHT22;11281;52.194;21.006;2023-02-26T01:28:51;0.30;99.90
22224;DHT22;11281;52.194;21.006;2023-02-26T01:38:10;0.30;99.90
22224;DHT22;11281;52.194;21.006;2023-02-26T01:42:38;0.30;99.90
22224;DHT22;11281;52.194;21.006;2023-02-26T01:47:22;0.30;99.90
22224;DHT22;11281;52.194;21.006;2023-02-26T01:51:50;0.30;99.90
22224;DHT22;11281;52.194;21.006;2023-02-26T01:56:15;0.20;99.90
22224;DHT22;11281;52.194;21.006;2023-02-26T02:00:38;0.30;99.90
22224;DHT22;11281;52.194;21.006;2023-02-26T02:05:06;0.30;99.90
22224;DHT22;11281;52.194;21.006;2023-02-26T02:09:33;0.20;99.90
22224;DHT22;11281;52.194;21.006;2023-02-26T02:24:00;0.30;99.90
22224;DHT22;11281;52.194;21.006;2023-02-26T02:32:58;0.30;99.90
22224;DHT22;11281;52.194;21.006;2023-02-26T02:37:33;0.30;99.90
22224;DHT22;11281;52.194;21.006;2023-02-26T02:42:05;0.30;99.90
22224;DHT22;11281;52.194;21.006;2023-02-26T02:46:32;0.30;99.90
22224;DHT22;11281;52.194;21.006;2023-02-26T02:51:09;0.30;99.90
22224;DHT22;11281;52.194;21.006;2023-02-26T02:55:42;0.30;99.90
22224;DHT22;11281;52.194;21.006;2023-02-26T03:00:10;0.30;99.90
22224;DHT22;11281;52.194;21.006;2023-02-26T03:04:34;0.30;99.90
22224;DHT22;11281;52.194;21.006;2023-02-26T03:08:57;0.30;99.90
22224;DHT22;11281;52.194;21.006;2023-02-26T03:13:23;0.30;99.90
22224;DHT22;11281;52.194;21.006;2023-02-26T03:17:55;0.40;99.90
22224;DHT22;11281;52.194;21.006;2023-02-26T03:32:05;0.30;99.90
22224;DHT22;11281;52.194;21.006;2023-02-26T03:36:53;0.30;99.90
22224;DHT22;11281;52.194;21.006;2023-02-26T03:41:26;0.30;99.90
22224;DHT22;11281;52.194;21.006;2023-02-26T03:45:55;0.30;99.90
22224;DHT22;11281;52.194;21.006;2023-02-26T03:55:08;0.20;99.90
22224;DHT22;11281;52.194;21.006;2023-02-26T03:59:33;0.20;99.90
22224;DHT22;11281;52.194;21.006;2023-02-26T04:04:09;0.20;99.90
22224;DHT22;11281;52.194;21.006;2023-02-26T04:08:33;0.10;99.90
22224;DHT22;11281;52.194;21.006;2023-02-26T04:13:01;0.10;99.90
22224;DHT22;11281;52.194;21.006;2023-02-26T04:17:23;0.10;99.90
22224;DHT22;11281;52.194;21.006;2023-02-26T04:21:45;0.10;99.90
22224;DHT22;11281;52.194;21.006;2023-02-26T04:26:07;0.10;99.90
22224;DHT22;11281;52.194;21.006;2023-02-26T04:30:28;0.10;99.90
22224;DHT22;11281;52.194;21.006;2023-02-26T04:34:50;0.10;99.90
22224;DHT22;11281;52.194;21.006;2023-02-26T04:39:12;0.10;99.90
22224;DHT22;11281;52.194;21.006;2023-02-26T04:43:34;0.10;99.90
22224;DHT22;11281;52.194;21.006;2023-02-26T04:47:55;0.10;99.90
22224;DHT22;11281;52.194;21.006;2023-02-26T04:52:17;0.20;99.90
22224;DHT22;11281;52.194;21.006;2023-02-26T04:56:39;0.10;99.90
22224;DHT22;11281;52.194;21.006;2023-02-26T05:01:01;0.10;99.90
22224;DHT22;11281;52.194;21.006;2023-02-26T05:05:23;0.10;99.90
22224;DHT22;11281;52.194;21.006;2023-02-26T05:09:44;0.10;99.90
22224;DHT22;11281;52.194;21.006;2023-02-26T05:14:06;0.00;99.90
22224;DHT22;11281;52.194;21.006;2023-02-26T05:18:28;-0.10;99.90
22224;DHT22;11281;52.194;21.006;2023-02-26T05:22:50;-0.20;99.90
22224;DHT22;11281;52.194;21.006;2023-02-26T05:27:11;-0.20;99.90
22224;DHT22;11281;52.194;21.006;2023-02-26T05:31:33;-0.30;99.90
22224;DHT22;11281;52.194;21.006;2023-02-26T05:35:55;-0.30;99.90
22224;DHT22;11281;52.194;21.006;2023-02-26T05:40:18;-0.30;99.90
22224;DHT22;11281;52.194;21.006;2023-02-26T05:44:39;-0.30;99.90
22224;DHT22;11281;52.194;21.006;2023-02-26T05:49:01;-0.40;99.90
22224;DHT22;11281;52.194;21.006;2023-02-26T05:53:23;-0.40;99.90
22224;DHT22;11281;52.194;21.006;2023-02-26T05:57:44;-0.50;99.90
22224;DHT22;11281;52.194;21.006;2023-02-26T06:02:07;-0.50;99.90
22224;DHT22;11281;52.194;21.006;2023-02-26T06:06:29;-0.50;99.90
22224;DHT22;11281;52.194;21.006;2023-02-26T06:10:51;-0.50;99.90
22224;DHT22;11281;52.194;21.006;2023-02-26T06:15:13;-0.50;99.90
22224;DHT22;11281;52.194;21.006;2023-02-26T06:19:34;-0.40;99.90
22224;DHT22;11281;52.194;21.006;2023-02-26T06:23:56;-0.40;99.90
22224;DHT22;11281;52.194;21.006;2023-02-26T06:28:18;-0.30;99.90
22224;DHT22;11281;52.194;21.006;2023-02-26T06:32:40;-0.30;99.90
22224;DHT22;11281;52.194;21.006;2023-02-26T06:37:02;-0.30;99.90
22224;DHT22;11281;52.194;21.006;2023-02-26T06:41:24;-0.20;99.90
22224;DHT22;11281;52.194;21.006;2023-02-26T06:45:45;-0.20;99.90
22224;DHT22;11281;52.194;21.006;2023-02-26T06:50:08;-0.20;99.90
22224;DHT22;11281;52.194;21.006;2023-02-26T06:54:30;-0.20;99.90
22224;DHT22;11281;52.194;21.006;2023-02-26T06:58:52;-0.20;99.90
22224;DHT22;11281;52.194;21.006;2023-02-26T07:03:15;-0.20;99.90
22224;DHT22;11281;52.194;21.006;2023-02-26T07:07:38;-0.20;99.90
22224;DHT22;11281;52.194;21.006;2023-02-26T07:12:00;-0.20;99.90
22224;DHT22;11281;52.194;21.006;2023-02-26T07:16:21;-0.20;99.90
22224;DHT22;11281;52.194;21.006;2023-02-26T07:20:43;-0.20;99.90
22224;DHT22;11281;52.194;21.006;2023-02-26T07:25:06;-0.20;99.90
22224;DHT22;11281;52.194;21.006;2023-02-26T07:29:27;-0.10;99.90
22224;DHT22;11281;52.194;21.006;2023-02-26T07:33:49;0.00;99.90
22224;DHT22;11281;52.194;21.006;2023-02-26T07:38:11;0.00;99.90
22224;DHT22;11281;52.194;21.006;2023-02-26T07:42:32;0.10;99.90
22224;DHT22;11281;52.194;21.006;2023-02-26T07:46:54;0.10;99.90
22224;DHT22;11281;52.194;21.006;2023-02-26T07:51:16;0.10;99.90
22224;DHT22;11281;52.194;21.006;2023-02-26T07:55:38;0.10;99.90
22224;DHT22;11281;52.194;21.006;2023-02-26T07:59:59;0.00;99.90
22224;DHT22;11281;52.194;21.006;2023-02-26T08:04:21;0.00;99.90
22224;DHT22;11281;52.194;21.006;2023-02-26T08:08:43;0.10;99.90
22224;DHT22;11281;52.194;21.006;2023-02-26T08:13:05;0.10;99.90
22224;DHT22;11281;52.194;21.006;2023-02-26T08:17:26;0.20;99.90
22224;DHT22;11281;52.194;21.006;2023-02-26T08:21:48;0.20;99.90
22224;DHT22;11281;52.194;21.006;2023-02-26T08:26:10;0.20;99.90
22224;DHT22;11281;52.194;21.006;2023-02-26T08:30:33;0.20;99.90
22224;DHT22;11281;52.194;21.006;2023-02-26T08:34:55;0.20;99.90
22224;DHT22;11281;52.194;21.006;2023-02-26T08:39:17;0.30;99.90
22224;DHT22;11281;52.194;21.006;2023-02-26T08:43:39;0.20;99.90
22224;DHT22;11281;52.194;21.006;2023-02-26T08:48:00;0.30;99.90
22224;DHT22;11281;52.194;21.006;2023-02-26T08:52:22;0.30;99.90
22224;DHT22;11281;52.194;21.006;2023-02-26T08:56:44;0.20;99.90
22224;DHT22;11281;52.194;21.006;2023-02-26T09:01:06;0.20;99.90
22224;DHT22;11281;52.194;21.006;2023-02-26T09:05:27;0.30;99.90
22224;DHT22;11281;52.194;21.006;2023-02-26T09:09:49;0.30;99.90
22224;DHT22;11281;52.194;21.006;2023-02-26T09:14:11;0.30;99.90
22224;DHT22;11281;52.194;21.006;2023-02-26T09:18:33;0.60;99.90
22224;DHT22;11281;52.194;21.006;2023-02-26T09:22:55;0.50;99.90
22224;DHT22;11281;52.194;21.006;2023-02-26T09:27:17;0.50;99.90
22224;DHT22;11281;52.194;21.006;2023-02-26T09:31:39;0.60;99.90
22224;DHT22;11281;52.194;21.006;2023-02-26T09:36:01;0.70;99.90
22224;DHT22;11281;52.194;21.006;2023-02-26T09:45:32;0.70;99.90
22224;DHT22;11281;52.194;21.006;2023-02-26T09:50:15;0.70;99.90
22224;DHT22;11281;52.194;21.006;2023-02-26T09:54:45;0.60;99.90
22224;DHT22;11281;52.194;21.006;2023-02-26T09:59:08;0.60;99.90
22224;DHT22;11281;52.194;21.006;2023-02-26T10:03:53;0.70;99.90
22224;DHT22;11281;52.194;21.006;2023-02-26T10:13:54;0.70;99.90
22224;DHT22;11281;52.194;21.006;2023-02-26T10:18:23;0.60;99.90
22224;DHT22;11281;52.194;21.006;2023-02-26T10:23:06;0.70;99.90
22224;DHT22;11281;52.194;21.006;2023-02-26T10:27:54;0.90;99.90
22224;DHT22;11281;52.194;21.006;2023-02-26T10:32:40;1.00;99.90
22224;DHT22;11281;52.194;21.006;2023-02-26T10:41:58;1.10;99.90
22224;DHT22;11281;52.194;21.006;2023-02-26T10:51:00;1.10;99.90
22224;DHT22;11281;52.194;21.006;2023-02-26T11:00:19;1.10;99.90
22224;DHT22;11281;52.194;21.006;2023-02-26T11:04:41;1.00;99.90
22224;DHT22;11281;52.194;21.006;2023-02-26T11:09:06;1.10;99.90
22224;DHT22;11281;52.194;21.006;2023-02-26T11:13:38;1.00;99.90
22224;DHT22;11281;52.194;21.006;2023-02-26T11:18:01;1.00;99.90
22224;DHT22;11281;52.194;21.006;2023-02-26T11:22:25;1.00;99.90
22224;DHT22;11281;52.194;21.006;2023-02-26T11:26:50;1.00;99.90
22224;DHT22;11281;52.194;21.006;2023-02-26T11:31:19;1.00;99.90
22224;DHT22;11281;52.194;21.006;2023-02-26T11:35:44;1.00;99.90
22224;DHT22;11281;52.194;21.006;2023-02-26T11:40:33;1.10;99.90
22224;DHT22;11281;52.194;21.006;2023-02-26T11:44:59;1.40;99.90
22224;DHT22;11281;52.194;21.006;2023-02-26T11:49:24;1.50;99.90
22224;DHT22;11281;52.194;21.006;2023-02-26T11:53:51;1.70;99.90
22224;DHT22;11281;52.194;21.006;2023-02-26T11:58:22;1.80;99.90
22224;DHT22;11281;52.194;21.006;2023-02-26T12:02:45;1.50;99.90
22224;DHT22;11281;52.194;21.006;2023-02-26T12:07:14;1.50;99.90
22224;DHT22;11281;52.194;21.006;2023-02-26T12:12:41;1.50;99.90
22224;DHT22;11281;52.194;21.006;2023-02-26T12:27:34;1.50;99.90
22224;DHT22;11281;52.194;21.006;2023-02-26T12:41:14;1.70;99.90
22224;DHT22;11281;52.194;21.006;2023-02-26T12:46:10;1.70;99.90
22224;DHT22;11281;52.194;21.006;2023-02-26T12:55:53;1.90;99.90
22224;DHT22;11281;52.194;21.006;2023-02-26T13:10:22;1.80;99.90
22224;DHT22;11281;52.194;21.006;2023-02-26T13:20:12;2.00;99.90
22224;DHT22;11281;52.194;21.006;2023-02-26T13:24:42;1.90;99.90
22224;DHT22;11281;52.194;21.006;2023-02-26T13:29:20;1.80;99.90
22224;DHT22;11281;52.194;21.006;2023-02-26T13:33:50;2.10;99.90
22224;DHT22;11281;52.194;21.006;2023-02-26T13:38:43;2.20;99.90
22224;DHT22;11281;52.194;21.006;2023-02-26T13:43:14;2.00;99.90
22224;DHT22;11281;52.194;21.006;2023-02-26T13:52:35;2.00;99.90
22224;DHT22;11281;52.194;21.006;2023-02-26T13:57:35;2.10;99.90
22224;DHT22;11281;52.194;21.006;2023-02-26T14:11:43;2.00;99.90
22224;DHT22;11281;52.194;21.006;2023-02-26T14:16:26;2.00;99.90
22224;DHT22;11281;52.194;21.006;2023-02-26T14:20:50;2.00;99.90
22224;DHT22;11281;52.194;21.006;2023-02-26T14:34:24;2.20;99.90
22224;DHT22;11281;52.194;21.006;2023-02-26T14:38:47;2.00;99.90
22224;DHT22;11281;52.194;21.006;2023-02-26T14:43:17;2.00;99.90
22224;DHT22;11281;52.194;21.006;2023-02-26T14:47:43;1.90;99.90
22224;DHT22;11281;52.194;21.006;2023-02-26T14:52:19;1.90;99.90
22224;DHT22;11281;52.194;21.006;2023-02-26T14:57:10;1.80;99.90
22224;DHT22;11281;52.194;21.006;2023-02-26T15:07:02;2.00;99.90
22224;DHT22;11281;52.194;21.006;2023-02-26T15:12:02;1.90;99.90
22224;DHT22;11281;52.194;21.006;2023-02-26T15:26:04;1.50;99.90
22224;DHT22;11281;52.194;21.006;2023-02-26T15:30:28;1.40;99.90
22224;DHT22;11281;52.194;21.006;2023-02-26T15:35:14;1.40;99.90
22224;DHT22;11281;52.194;21.006;2023-02-26T15:39:40;1.30;99.90
22224;DHT22;11281;52.194;21.006;2023-02-26T15:44:05;1.10;99.90
22224;DHT22;11281;52.194;21.006;2023-02-26T15:48:32;0.90;99.90
22224;DHT22;11281;52.194;21.006;2023-02-26T15:53:02;0.60;99.90
22224;DHT22;11281;52.194;21.006;2023-02-26T15:57:25;0.60;99.90
22224;DHT22;11281;52.194;21.006;2023-02-26T16:01:48;0.50;99.90
22224;DHT22;11281;52.194;21.006;2023-02-26T16:06:14;0.40;99.90
22224;DHT22;11281;52.194;21.006;2023-02-26T16:10:41;0.30;99.90
22224;DHT22;11281;52.194;21.006;2023-02-26T16:15:11;0.30;99.90
22224;DHT22;11281;52.194;21.006;2023-02-26T16:19:43;0.30;99.90
22224;DHT22;11281;52.194;21.006;2023-02-26T16:24:13;0.20;99.90
22224;DHT22;11281;52.194;21.006;2023-02-26T16:28:40;0.20;99.90
22224;DHT22;11281;52.194;21.006;2023-02-26T16:33:13;0.30;99.90
22224;DHT22;11281;52.194;21.006;2023-02-26T16:37:43;0.30;99.90
22224;DHT22;11281;52.194;21.006;2023-02-26T16:42:14;0.40;99.90
22224;DHT22;11281;52.194;21.006;2023-02-26T16:46:42;0.40;99.90
22224;DHT22;11281;52.194;21.006;2023-02-26T16:51:13;0.40;99.90
22224;DHT22;11281;52.194;21.006;2023-02-26T16:55:42;0.30;99.90
22224;DHT22;11281;52.194;21.006;2023-02-26T17:00:16;0.30;99.90
22224;DHT22;11281;52.194;21.006;2023-02-26T17:04:41;0.30;99.90
22224;DHT22;11281;52.194;21.006;2023-02-26T17:09:05;0.40;99.90
22224;DHT22;11281;52.194;21.006;2023-02-26T17:13:31;0.40;99.90
22224;DHT22;11281;52.194;21.006;2023-02-26T17:17:54;0.40;99.90
22224;DHT22;11281;52.194;21.006;2023-02-26T17:22:25;0.30;99.90
22224;DHT22;11281;52.194;21.006;2023-02-26T17:26:48;0.30;99.90
22224;DHT22;11281;52.194;21.006;2023-02-26T17:31:10;0.30;99.90
22224;DHT22;11281;52.194;21.006;2023-02-26T17:35:32;0.20;99.90
22224;DHT22;11281;52.194;21.006;2023-02-26T17:39:54;0.10;99.90
22224;DHT22;11281;52.194;21.006;2023-02-26T17:44:17;0.00;99.90
22224;DHT22;11281;52.194;21.006;2023-02-26T17:48:40;0.10;99.90
22224;DHT22;11281;52.194;21.006;2023-02-26T17:53:02;0.10;99.90
22224;DHT22;11281;52.194;21.006;2023-02-26T17:57:26;0.40;99.90
22224;DHT22;11281;52.194;21.006;2023-02-26T18:01:48;0.50;99.90
22224;DHT22;11281;52.194;21.006;2023-02-26T18:06:12;0.50;99.90
22224;DHT22;11281;52.194;21.006;2023-02-26T18:10:34;0.50;99.90
22224;DHT22;11281;52.194;21.006;2023-02-26T18:14:56;0.40;99.90
22224;DHT22;11281;52.194;21.006;2023-02-26T18:19:18;0.50;99.90
22224;DHT22;11281;52.194;21.006;2023-02-26T18:23:40;0.50;99.90
22224;DHT22;11281;52.194;21.006;2023-02-26T18:28:02;0.60;99.90
22224;DHT22;11281;52.194;21.006;2023-02-26T18:32:25;0.60;99.90
22224;DHT22;11281;52.194;21.006;2023-02-26T18:36:47;0.60;99.90
22224;DHT22;11281;52.194;21.006;2023-02-26T18:41:09;0.60;99.90
22224;DHT22;11281;52.194;21.006;2023-02-26T18:45:31;0.60;99.90
22224;DHT22;11281;52.194;21.006;2023-02-26T18:49:53;0.50;99.90
22224;DHT22;11281;52.194;21.006;2023-02-26T18:54:15;0.60;99.90
22224;DHT22;11281;52.194;21.006;2023-02-26T18:58:37;0.70;99.90
22224;DHT22;11281;52.194;21.006;2023-02-26T19:02:58;0.70;99.90
22224;DHT22;11281;52.194;21.006;2023-02-26T19:07:20;0.70;99.90
22224;DHT22;11281;52.194;21.006;2023-02-26T19:11:42;0.70;99.90
22224;DHT22;11281;52.194;21.006;2023-02-26T19:16:04;0.80;99.90
22224;DHT22;11281;52.194;21.006;2023-02-26T19:20:26;0.80;99.90
22224;DHT22;11281;52.194;21.006;2023-02-26T19:24:47;0.80;99.90
22224;DHT22;11281;52.194;21.006;2023-02-26T19:29:13;0.80;99.90
22224;DHT22;11281;52.194;21.006;2023-02-26T19:33:37;0.80;99.90
22224;DHT22;11281;52.194;21.006;2023-02-26T19:37:58;0.80;99.90
22224;DHT22;11281;52.194;21.006;2023-02-26T19:42:20;0.80;99.90
22224;DHT22;11281;52.194;21.006;2023-02-26T19:46:42;0.80;99.90
22224;DHT22;11281;52.194;21.006;2023-02-26T19:51:04;0.80;99.90
22224;DHT22;11281;52.194;21.006;2023-02-26T19:55:26;0.80;99.90
22224;DHT22;11281;52.194;21.006;2023-02-26T19:59:48;0.70;99.90
22224;DHT22;11281;52.194;21.006;2023-02-26T20:04:10;0.80;99.90
22224;DHT22;11281;52.194;21.006;2023-02-26T20:08:31;0.80;99.90
22224;DHT22;11281;52.194;21.006;2023-02-26T20:12:53;0.90;99.90
22224;DHT22;11281;52.194;21.006;2023-02-26T20:17:16;0.90;99.90
22224;DHT22;11281;52.194;21.006;2023-02-26T20:21:39;0.90;99.90
22224;DHT22;11281;52.194;21.006;2023-02-26T20:26:02;0.90;99.90
22224;DHT22;11281;52.194;21.006;2023-02-26T20:30:25;0.90;99.90
22224;DHT22;11281;52.194;21.006;2023-02-26T20:34:48;0.90;99.90
22224;DHT22;11281;52.194;21.006;2023-02-26T20:39:12;0.90;99.90
22224;DHT22;11281;52.194;21.006;2023-02-26T20:43:33;0.90;99.90
22224;DHT22;11281;52.194;21.006;2023-02-26T20:47:55;0.90;99.90
22224;DHT22;11281;52.194;21.006;2023-02-26T20:52:17;0.90;99.90
22224;DHT22;11281;52.194;21.006;2023-02-26T20:56:39;0.90;99.90
22224;DHT22;11281;52.194;21.006;2023-02-26T21:01:01;0.90;99.90
22224;DHT22;11281;52.194;21.006;2023-02-26T21:05:22;0.90;99.90
22224;DHT22;11281;52.194;21.006;2023-02-26T21:09:44;0.90;99.90
22224;DHT22;11281;52.194;21.006;2023-02-26T21:14:08;0.90;99.90
22224;DHT22;11281;52.194;21.006;2023-02-26T21:18:30;0.90;99.90
22224;DHT22;11281;52.194;21.006;2023-02-26T21:22:53;0.90;99.90
22224;DHT22;11281;52.194;21.006;2023-02-26T21:27:15;0.90;99.90
22224;DHT22;11281;52.194;21.006;2023-02-26T21:31:37;0.80;99.90
22224;DHT22;11281;52.194;21.006;2023-02-26T21:35:58;0.80;99.90
22224;DHT22;11281;52.194;21.006;2023-02-26T21:40:20;0.80;99.90
22224;DHT22;11281;52.194;21.006;2023-02-26T21:44:42;0.80;99.90
22224;DHT22;11281;52.194;21.006;2023-02-26T21:49:04;0.80;99.90
22224;DHT22;11281;52.194;21.006;2023-02-26T21:53:26;0.80;99.90
22224;DHT22;11281;52.194;21.006;2023-02-26T21:57:48;0.80;99.90
22224;DHT22;11281;52.194;21.006;2023-02-26T22:02:10;0.80;99.90
22224;DHT22;11281;52.194;21.006;2023-02-26T22:06:33;0.80;99.90
22224;DHT22;11281;52.194;21.006;2023-02-26T22:10:55;0.80;99.90
22224;DHT22;11281;52.194;21.006;2023-02-26T22:15:17;0.80;99.90
22224;DHT22;11281;52.194;21.006;2023-02-26T22:19:40;0.80;99.90
22224;DHT22;11281;52.194;21.006;2023-02-26T22:24:02;0.80;99.90
22224;DHT22;11281;52.194;21.006;2023-02-26T22:28:24;0.80;99.90
22224;DHT22;11281;52.194;21.006;2023-02-26T22:32:45;0.80;99.90
22224;DHT22;11281;52.194;21.006;2023-02-26T22:37:07;0.80;99.90
22224;DHT22;11281;52.194;21.006;2023-02-26T22:41:29;0.80;99.90
22224;DHT22;11281;52.194;21.006;2023-02-26T22:45:50;0.80;99.90
22224;DHT22;11281;52.194;21.006;2023-02-26T22:50:15;0.80;99.90
22224;DHT22;11281;52.194;21.006;2023-02-26T22:54:37;0.70;99.90
22224;DHT22;11281;52.194;21.006;2023-02-26T22:58:59;0.70;99.90
22224;DHT22;11281;52.194;21.006;2023-02-26T23:03:21;0.70;99.90
22224;DHT22;11281;52.194;21.006;2023-02-26T23:07:43;0.70;99.90
22224;DHT22;11281;52.194;21.006;2023-02-26T23:12:05;0.60;99.90
22224;DHT22;11281;52.194;21.006;2023-02-26T23:16:27;0.70;99.90
22224;DHT22;11281;52.194;21.006;2023-02-26T23:20:49;0.70;99.90
22224;DHT22;11281;52.194;21.006;2023-02-26T23:25:11;0.70;99.90
22224;DHT22;11281;52.194;21.006;2023-02-26T23:29:32;0.60;99.90
22224;DHT22;11281;52.194;21.006;2023-02-26T23:33:54;0.60;99.90
22224;DHT22;11281;52.194;21.006;2023-02-26T23:38:16;0.60;99.90
22224;DHT22;11281;52.194;21.006;2023-02-26T23:42:38;0.60;99.90
22224;DHT22;11281;52.194;21.006;2023-02-26T23:46:59;0.60;99.90
22224;DHT22;11281;52.194;21.006;2023-02-26T23:51:21;0.60;99.90
22224;DHT22;11281;52.194;21.006;2023-02-26T23:55:43;0.50;99.90
